Kasagimaru — JJ3905 — position and weather

sailwx.info

Track history (hours):
 
Tides and Currents Weather Stations Pressure Air Temp Water Temp Dewpoint Dewpoint Depression Visibility Wind Speed Wind Dir Waves Ship Positions

Kasagimaru

Last reported at 2014-Sep-02 21:12 UTC. Time now 2014-Sep-02 23:46 UTC.
Position N 34°08' E 135°01'.

Length 42 m; draft 3.5 m.

Type: Tug. MMSI: 431300268.

Date/timePositionNaut miles runAvg speedWind from/ knotsBaromVisibWave heightAir tempDewpointWater temp
2014-Sep-02 21:12N 34°08' E 135°01'711.3
2014-Sep-02 20:33N 34°13' E 135°08'1 0.9
2014-Sep-02 19:33N 34°13' E 135°09'0 0.0
2014-Sep-02 18:33N 34°13' E 135°09'0 0.0
2014-Sep-02 17:33N 34°13' E 135°09'0 0.0
2014-Sep-02 16:33N 34°13' E 135°09'0 0.0
2014-Sep-02 15:33N 34°13' E 135°09'0 0.0
2014-Sep-02 14:33N 34°13' E 135°09'0 0.0
2014-Sep-02 13:33N 34°13' E 135°09'0 0.0
2014-Sep-02 12:33N 34°13' E 135°09'0 0.0
2014-Sep-02 11:33N 34°13' E 135°09'0 0.0
2014-Sep-02 10:33N 34°13' E 135°09'0 0.0
2014-Sep-02 09:33N 34°13' E 135°09'0 0.0
2014-Sep-02 08:33N 34°13' E 135°09'0 0.0
2014-Sep-02 07:33N 34°13' E 135°09'0 0.0
2014-Sep-02 06:33N 34°13' E 135°09'0 0.0
2014-Sep-02 05:33N 34°13' E 135°09'0 0.0
2014-Sep-02 04:33N 34°13' E 135°09'0 0.0
2014-Sep-02 03:33N 34°13' E 135°09'0 0.0
2014-Sep-02 02:33N 34°13' E 135°09'0 0.0
2014-Sep-02 01:33N 34°13' E 135°09'0 0.0
2014-Sep-02 00:33N 34°13' E 135°09'0 0.0
2014-Sep-01 23:33N 34°13' E 135°09'0 0.0
2014-Sep-01 22:33N 34°13' E 135°09'0 0.0
2014-Sep-01 21:33N 34°13' E 135°09'0 0.0
2014-Sep-01 20:33N 34°13' E 135°09'0 0.0
2014-Sep-01 19:33N 34°13' E 135°09'0 0.0
2014-Sep-01 18:33N 34°13' E 135°09'0 0.0
2014-Sep-01 17:33N 34°13' E 135°09'0 0.0
2014-Sep-01 16:33N 34°13' E 135°09'0 0.0
2014-Sep-01 15:33N 34°13' E 135°09'0 0.0
2014-Sep-01 14:33N 34°13' E 135°09'0 0.0
2014-Sep-01 13:33N 34°13' E 135°09'0 0.0
2014-Sep-01 12:33N 34°13' E 135°09'0 0.0
2014-Sep-01 11:33N 34°13' E 135°09'0 0.0
2014-Sep-01 10:33N 34°13' E 135°09'0 0.0
2014-Sep-01 09:33N 34°13' E 135°09'0 0.0
2014-Sep-01 08:33N 34°13' E 135°09'0 0.0
2014-Sep-01 07:33N 34°13' E 135°09'0 0.0
2014-Sep-01 06:33N 34°13' E 135°09'0 0.0
2014-Sep-01 05:33N 34°13' E 135°09'0 0.0
2014-Sep-01 04:33N 34°13' E 135°09'0 0.0
2014-Sep-01 03:33N 34°13' E 135°09'10 0.4
2014-Aug-31 05:19N 34°15' E 134°58'911.7
2014-Aug-31 04:33N 34°23' E 135°03'1212.5
2014-Aug-31 03:33N 34°29' E 135°17'6 6.1
2014-Aug-31 02:33N 34°31' E 135°23'2 2.2
2014-Aug-31 01:33N 34°33' E 135°25'3 3.3
2014-Aug-31 00:32N 34°33' E 135°21'5 4.6
2014-Aug-30 23:32N 34°33' E 135°26'0 0.4
2014-Aug-30 22:33N 34°33' E 135°27'0 0.0
2014-Aug-30 21:34N 34°33' E 135°27'0 0.0
2014-Aug-30 20:33N 34°33' E 135°27'0 0.0
2014-Aug-30 19:34N 34°33' E 135°27'0 0.0
2014-Aug-30 18:34N 34°33' E 135°27'0 0.0
2014-Aug-30 17:34N 34°33' E 135°27'0 0.0
2014-Aug-30 16:34N 34°33' E 135°27'0 0.0
2014-Aug-30 15:33N 34°33' E 135°27'0 0.0
2014-Aug-30 14:33N 34°33' E 135°27'0 0.0
2014-Aug-30 13:26N 34°33' E 135°27'0 0.0
2014-Aug-30 12:32N 34°33' E 135°27'0 0.0
2014-Aug-30 11:34N 34°33' E 135°27'0 0.0
2014-Aug-30 10:10N 34°33' E 135°27'0 0.0
2014-Aug-30 09:30N 34°33' E 135°27'0 0.0
2014-Aug-30 08:34N 34°33' E 135°27'0 0.0
2014-Aug-30 07:34N 34°33' E 135°27'0 0.0
2014-Aug-30 06:34N 34°33' E 135°27'0 0.0
2014-Aug-30 05:33N 34°33' E 135°27'0 0.0
2014-Aug-30 04:33N 34°33' E 135°27'0 0.0
2014-Aug-30 03:33N 34°33' E 135°27'0 0.0
2014-Aug-30 02:32N 34°33' E 135°27'3 2.5
2014-Aug-30 01:31N 34°33' E 135°23'1 0.7
2014-Aug-30 00:33N 34°33' E 135°24'0 0.1
2014-Aug-29 23:29N 34°33' E 135°24'0 0.0
2014-Aug-29 22:30N 34°33' E 135°24'0 0.0
2014-Aug-29 21:32N 34°33' E 135°24'0 0.0
2014-Aug-29 20:32N 34°33' E 135°24'0 0.1
2014-Aug-29 19:33N 34°33' E 135°24'0 0.1
2014-Aug-29 18:29N 34°33' E 135°24'0 0.1
2014-Aug-29 17:33N 34°33' E 135°24'0 0.1
2014-Aug-29 16:33N 34°33' E 135°24'0 0.1
2014-Aug-29 15:33N 34°33' E 135°24'0 0.0
2014-Aug-29 14:33N 34°33' E 135°24'0 0.1
2014-Aug-29 13:33N 34°33' E 135°24'0 0.0
2014-Aug-29 12:33N 34°33' E 135°24'0 0.0
2014-Aug-29 11:31N 34°33' E 135°24'0 0.1
2014-Aug-29 10:33N 34°33' E 135°24'0 0.1
2014-Aug-29 09:32N 34°33' E 135°24'0 0.1
2014-Aug-29 08:33N 34°33' E 135°24'0 0.1
2014-Aug-29 07:30N 34°33' E 135°24'0 0.0
2014-Aug-29 06:33N 34°33' E 135°24'0 0.0
2014-Aug-29 05:32N 34°33' E 135°24'0 0.0
2014-Aug-29 04:33N 34°33' E 135°24'0 0.1
2014-Aug-29 03:33N 34°33' E 135°24'1 0.5
2014-Aug-29 02:33N 34°33' E 135°24'7 7.1
2014-Aug-29 01:33N 34°32' E 135°15'6 6.0
2014-Aug-29 00:33N 34°33' E 135°23'3 0.2
2014-Aug-28 09:33N 34°33' E 135°27'0 0.0
2014-Aug-28 08:33N 34°33' E 135°27'0 0.0
2014-Aug-28 07:33N 34°33' E 135°27'0 0.0
2014-Aug-28 06:33N 34°33' E 135°27'0 0.0
2014-Aug-28 05:32N 34°33' E 135°27'0 0.0
2014-Aug-28 04:31N 34°33' E 135°27'0 0.0
2014-Aug-28 03:30N 34°33' E 135°27'1 1.2
2014-Aug-28 02:25N 34°33' E 135°25'0 0.2
2014-Aug-28 01:32N 34°33' E 135°25'4 3.8
2014-Aug-28 00:33N 34°34' E 135°21'5 0.5
2014-Aug-27 14:10N 34°33' E 135°27'0 0.0
2014-Aug-27 13:33N 34°33' E 135°27'0 0.0
2014-Aug-27 12:33N 34°33' E 135°27'0 0.0
2014-Aug-27 11:33N 34°33' E 135°27'0 0.0
2014-Aug-27 10:33N 34°33' E 135°27'0 0.0
2014-Aug-27 09:33N 34°33' E 135°27'2 2.5
2014-Aug-27 08:33N 34°32' E 135°24'0 0.1
2014-Aug-27 07:32N 34°32' E 135°24'1 1.4
2014-Aug-27 06:33N 34°33' E 135°24'2 2.1
2014-Aug-27 05:32N 34°33' E 135°27'0 0.0
2014-Aug-27 04:33N 34°33' E 135°27'0 0.0
2014-Aug-27 03:32N 34°33' E 135°27'0 0.0
2014-Aug-27 02:33N 34°33' E 135°27'0 0.0
2014-Aug-27 01:33N 34°33' E 135°27'1 0.5
2014-Aug-27 00:31N 34°33' E 135°26'0 0.3
2014-Aug-26 23:32N 34°33' E 135°26'5 5.4
2014-Aug-26 22:33N 34°34' E 135°19'6 5.6
2014-Aug-26 21:33N 34°33' E 135°26'11 0.8
2014-Aug-26 08:07N 34°25' E 135°17'712.3
2014-Aug-26 07:32N 34°23' E 135°09'10 9.2
2014-Aug-26 06:28N 34°17' E 134°59'1314.3
2014-Aug-26 05:33N 34°29' E 135°06'8 8.0
2014-Aug-26 04:34N 34°36' E 135°02'18 0.7
2014-Aug-25 01:12N 34°41' E 134°41'  
Track history (hours):
 
Tides and Currents Weather Stations Pressure Air Temp Water Temp Dewpoint Dewpoint Depression Visibility Wind Speed Wind Dir Waves Ship Positions

Kasagimaru

Last reported at 2014-Sep-02 21:12 UTC. Time now 2014-Sep-02 23:46 UTC.
Position N 34°08' E 135°01'.

Length 42 m; draft 3.5 m.

Type: Tug. MMSI: 431300268.

Date/timePositionNaut miles runAvg speedWind from/ knotsBaromVisibWave heightAir tempDewpointWater temp
2014-Sep-02 21:12N 34°08' E 135°01'711.3
2014-Sep-02 20:33N 34°13' E 135°08'1 0.9
2014-Sep-02 19:33N 34°13' E 135°09'0 0.0
2014-Sep-02 18:33N 34°13' E 135°09'0 0.0
2014-Sep-02 17:33N 34°13' E 135°09'0 0.0
2014-Sep-02 16:33N 34°13' E 135°09'0 0.0
2014-Sep-02 15:33N 34°13' E 135°09'0 0.0
2014-Sep-02 14:33N 34°13' E 135°09'0 0.0
2014-Sep-02 13:33N 34°13' E 135°09'0 0.0
2014-Sep-02 12:33N 34°13' E 135°09'0 0.0
2014-Sep-02 11:33N 34°13' E 135°09'0 0.0
2014-Sep-02 10:33N 34°13' E 135°09'0 0.0
2014-Sep-02 09:33N 34°13' E 135°09'0 0.0
2014-Sep-02 08:33N 34°13' E 135°09'0 0.0
2014-Sep-02 07:33N 34°13' E 135°09'0 0.0
2014-Sep-02 06:33N 34°13' E 135°09'0 0.0
2014-Sep-02 05:33N 34°13' E 135°09'0 0.0
2014-Sep-02 04:33N 34°13' E 135°09'0 0.0
2014-Sep-02 03:33N 34°13' E 135°09'0 0.0
2014-Sep-02 02:33N 34°13' E 135°09'0 0.0
2014-Sep-02 01:33N 34°13' E 135°09'0 0.0
2014-Sep-02 00:33N 34°13' E 135°09'0 0.0
2014-Sep-01 23:33N 34°13' E 135°09'0 0.0
2014-Sep-01 22:33N 34°13' E 135°09'0 0.0
2014-Sep-01 21:33N 34°13' E 135°09'0 0.0
2014-Sep-01 20:33N 34°13' E 135°09'0 0.0
2014-Sep-01 19:33N 34°13' E 135°09'0 0.0
2014-Sep-01 18:33N 34°13' E 135°09'0 0.0
2014-Sep-01 17:33N 34°13' E 135°09'0 0.0
2014-Sep-01 16:33N 34°13' E 135°09'0 0.0
2014-Sep-01 15:33N 34°13' E 135°09'0 0.0
2014-Sep-01 14:33N 34°13' E 135°09'0 0.0
2014-Sep-01 13:33N 34°13' E 135°09'0 0.0
2014-Sep-01 12:33N 34°13' E 135°09'0 0.0
2014-Sep-01 11:33N 34°13' E 135°09'0 0.0
2014-Sep-01 10:33N 34°13' E 135°09'0 0.0
2014-Sep-01 09:33N 34°13' E 135°09'0 0.0
2014-Sep-01 08:33N 34°13' E 135°09'0 0.0
2014-Sep-01 07:33N 34°13' E 135°09'0 0.0
2014-Sep-01 06:33N 34°13' E 135°09'0 0.0
2014-Sep-01 05:33N 34°13' E 135°09'0 0.0
2014-Sep-01 04:33N 34°13' E 135°09'0 0.0
2014-Sep-01 03:33N 34°13' E 135°09'10 0.4
2014-Aug-31 05:19N 34°15' E 134°58'911.7
2014-Aug-31 04:33N 34°23' E 135°03'1212.5
2014-Aug-31 03:33N 34°29' E 135°17'6 6.1
2014-Aug-31 02:33N 34°31' E 135°23'2 2.2
2014-Aug-31 01:33N 34°33' E 135°25'3 3.3
2014-Aug-31 00:32N 34°33' E 135°21'5 4.6
2014-Aug-30 23:32N 34°33' E 135°26'0 0.4
2014-Aug-30 22:33N 34°33' E 135°27'0 0.0
2014-Aug-30 21:34N 34°33' E 135°27'0 0.0
2014-Aug-30 20:33N 34°33' E 135°27'0 0.0
2014-Aug-30 19:34N 34°33' E 135°27'0 0.0
2014-Aug-30 18:34N 34°33' E 135°27'0 0.0
2014-Aug-30 17:34N 34°33' E 135°27'0 0.0
2014-Aug-30 16:34N 34°33' E 135°27'0 0.0
2014-Aug-30 15:33N 34°33' E 135°27'0 0.0
2014-Aug-30 14:33N 34°33' E 135°27'0 0.0
2014-Aug-30 13:26N 34°33' E 135°27'0 0.0
2014-Aug-30 12:32N 34°33' E 135°27'0 0.0
2014-Aug-30 11:34N 34°33' E 135°27'0 0.0
2014-Aug-30 10:10N 34°33' E 135°27'0 0.0
2014-Aug-30 09:30N 34°33' E 135°27'0 0.0
2014-Aug-30 08:34N 34°33' E 135°27'0 0.0
2014-Aug-30 07:34N 34°33' E 135°27'0 0.0
2014-Aug-30 06:34N 34°33' E 135°27'0 0.0
2014-Aug-30 05:33N 34°33' E 135°27'0 0.0
2014-Aug-30 04:33N 34°33' E 135°27'0 0.0
2014-Aug-30 03:33N 34°33' E 135°27'0 0.0
2014-Aug-30 02:32N 34°33' E 135°27'3 2.5
2014-Aug-30 01:31N 34°33' E 135°23'1 0.7
2014-Aug-30 00:33N 34°33' E 135°24'0 0.1
2014-Aug-29 23:29N 34°33' E 135°24'0 0.0
2014-Aug-29 22:30N 34°33' E 135°24'0 0.0
2014-Aug-29 21:32N 34°33' E 135°24'0 0.0
2014-Aug-29 20:32N 34°33' E 135°24'0 0.1
2014-Aug-29 19:33N 34°33' E 135°24'0 0.1
2014-Aug-29 18:29N 34°33' E 135°24'0 0.1
2014-Aug-29 17:33N 34°33' E 135°24'0 0.1
2014-Aug-29 16:33N 34°33' E 135°24'0 0.1
2014-Aug-29 15:33N 34°33' E 135°24'0 0.0
2014-Aug-29 14:33N 34°33' E 135°24'0 0.1
2014-Aug-29 13:33N 34°33' E 135°24'0 0.0
2014-Aug-29 12:33N 34°33' E 135°24'0 0.0
2014-Aug-29 11:31N 34°33' E 135°24'0 0.1
2014-Aug-29 10:33N 34°33' E 135°24'0 0.1
2014-Aug-29 09:32N 34°33' E 135°24'0 0.1
2014-Aug-29 08:33N 34°33' E 135°24'0 0.1
2014-Aug-29 07:30N 34°33' E 135°24'0 0.0
2014-Aug-29 06:33N 34°33' E 135°24'0 0.0
2014-Aug-29 05:32N 34°33' E 135°24'0 0.0
2014-Aug-29 04:33N 34°33' E 135°24'0 0.1
2014-Aug-29 03:33N 34°33' E 135°24'1 0.5
2014-Aug-29 02:33N 34°33' E 135°24'7 7.1
2014-Aug-29 01:33N 34°32' E 135°15'6 6.0
2014-Aug-29 00:33N 34°33' E 135°23'3 0.2
2014-Aug-28 09:33N 34°33' E 135°27'0 0.0
2014-Aug-28 08:33N 34°33' E 135°27'0 0.0
2014-Aug-28 07:33N 34°33' E 135°27'0 0.0
2014-Aug-28 06:33N 34°33' E 135°27'0 0.0
2014-Aug-28 05:32N 34°33' E 135°27'0 0.0
2014-Aug-28 04:31N 34°33' E 135°27'0 0.0
2014-Aug-28 03:30N 34°33' E 135°27'1 1.2
2014-Aug-28 02:25N 34°33' E 135°25'0 0.2
2014-Aug-28 01:32N 34°33' E 135°25'4 3.8
2014-Aug-28 00:33N 34°34' E 135°21'5 0.5
2014-Aug-27 14:10N 34°33' E 135°27'0 0.0
2014-Aug-27 13:33N 34°33' E 135°27'0 0.0
2014-Aug-27 12:33N 34°33' E 135°27'0 0.0
2014-Aug-27 11:33N 34°33' E 135°27'0 0.0
2014-Aug-27 10:33N 34°33' E 135°27'0 0.0
2014-Aug-27 09:33N 34°33' E 135°27'2 2.5
2014-Aug-27 08:33N 34°32' E 135°24'0 0.1
2014-Aug-27 07:32N 34°32' E 135°24'1 1.4
2014-Aug-27 06:33N 34°33' E 135°24'2 2.1
2014-Aug-27 05:32N 34°33' E 135°27'0 0.0
2014-Aug-27 04:33N 34°33' E 135°27'0 0.0
2014-Aug-27 03:32N 34°33' E 135°27'0 0.0
2014-Aug-27 02:33N 34°33' E 135°27'0 0.0
2014-Aug-27 01:33N 34°33' E 135°27'1 0.5
2014-Aug-27 00:31N 34°33' E 135°26'0 0.3
2014-Aug-26 23:32N 34°33' E 135°26'5 5.4
2014-Aug-26 22:33N 34°34' E 135°19'6 5.6
2014-Aug-26 21:33N 34°33' E 135°26'11 0.8
2014-Aug-26 08:07N 34°25' E 135°17'712.3
2014-Aug-26 07:32N 34°23' E 135°09'10 9.2
2014-Aug-26 06:28N 34°17' E 134°59'1314.3
2014-Aug-26 05:33N 34°29' E 135°06'8 8.0
2014-Aug-26 04:34N 34°36' E 135°02'18 0.7
2014-Aug-25 01:12N 34°41' E 134°41'  

Dump ship's entire track history